createdAt,value
2019-02-19T00:00:22.487Z,11.00
2019-02-19T00:02:51.474Z,10.27
2019-02-19T00:05:20.434Z,11.07
2019-02-19T00:07:49.440Z,10.33
2019-02-19T00:10:18.403Z,10.63
2019-02-19T00:12:47.387Z,10.23
2019-02-19T00:15:16.362Z,9.70
2019-02-19T00:17:45.346Z,10.10
2019-02-19T00:20:14.382Z,10.03
2019-02-19T00:22:43.363Z,10.43
2019-02-19T00:25:12.393Z,10.13
2019-02-19T00:27:41.556Z,9.83
2019-02-19T00:30:10.657Z,10.80
2019-02-19T00:32:39.623Z,9.80
2019-02-19T00:35:08.665Z,9.33
2019-02-19T00:37:37.723Z,11.03
2019-02-19T00:40:07.430Z,10.00
2019-02-19T00:42:36.470Z,10.33
2019-02-19T00:45:06.382Z,10.03
2019-02-19T00:47:35.358Z,10.13
2019-02-19T00:50:05.866Z,10.10
2019-02-19T00:52:34.834Z,9.80
2019-02-19T00:55:04.634Z,9.90
2019-02-19T00:57:33.623Z,9.03
2019-02-19T01:00:02.578Z,9.20
2019-02-19T01:02:31.570Z,9.70
2019-02-19T01:05:00.696Z,8.87
2019-02-19T01:07:29.747Z,9.40
2019-02-19T01:09:58.707Z,8.87
2019-02-19T01:12:27.689Z,9.50
2019-02-19T01:14:56.998Z,9.30
2019-02-19T01:17:26.002Z,9.13
2019-02-19T01:19:54.954Z,9.53
2019-02-19T01:22:23.944Z,9.23
2019-02-19T01:24:53.162Z,8.93
2019-02-19T01:27:22.156Z,8.23
2019-02-19T01:29:51.119Z,8.43
2019-02-19T01:32:20.094Z,8.77
2019-02-19T01:34:49.154Z,8.87
2019-02-19T01:37:18.221Z,9.60
2019-02-19T01:39:47.889Z,8.53
2019-02-19T01:42:16.858Z,8.03
2019-02-19T01:44:45.830Z,9.00
2019-02-19T01:47:14.861Z,8.93
2019-02-19T01:49:43.835Z,9.30
2019-02-19T01:52:12.791Z,9.30
2019-02-19T01:54:41.762Z,8.77
2019-02-19T01:57:10.714Z,8.90
2019-02-19T01:59:39.706Z,9.23
2019-02-19T02:02:08.653Z,8.80
2019-02-19T02:04:37.634Z,8.53
2019-02-19T02:07:06.608Z,8.83
2019-02-19T02:09:35.584Z,8.43
2019-02-19T02:12:04.544Z,8.77
2019-02-19T02:14:33.530Z,8.60
2019-02-19T02:17:02.494Z,8.87
2019-02-19T02:19:31.466Z,9.00
2019-02-19T02:22:00.421Z,8.80
2019-02-19T02:24:30.389Z,7.83
2019-02-19T02:26:59.381Z,8.67
2019-02-19T02:29:28.342Z,7.53
2019-02-19T02:31:57.303Z,7.77
2019-02-19T02:34:26.367Z,8.10
2019-02-19T02:36:55.327Z,7.63
2019-02-19T02:39:24.300Z,7.43
2019-02-19T02:41:53.263Z,8.10
2019-02-19T02:44:22.242Z,7.30
2019-02-19T02:46:51.202Z,7.80
2019-02-19T02:49:20.176Z,6.83
2019-02-19T02:51:49.240Z,7.63
2019-02-19T02:54:18.201Z,7.50
2019-02-19T02:56:47.242Z,7.33
2019-02-19T02:59:16.210Z,7.30
2019-02-19T03:01:45.167Z,7.20
2019-02-19T03:04:14.332Z,7.13
2019-02-19T03:06:56.939Z,7.10
2019-02-19T03:09:25.994Z,7.47
2019-02-19T03:11:55.002Z,7.00
2019-02-19T03:14:23.988Z,8.20
2019-02-19T03:16:52.937Z,7.87
2019-02-19T03:19:21.906Z,7.27
2019-02-19T03:21:50.863Z,7.83
2019-02-19T03:24:19.871Z,7.33
2019-02-19T03:26:48.842Z,7.10
2019-02-19T03:29:17.818Z,7.57
2019-02-19T03:31:46.788Z,7.10
2019-02-19T03:34:15.743Z,7.43
2019-02-19T03:36:44.698Z,6.73
2019-02-19T03:39:13.665Z,7.77
2019-02-19T03:41:42.624Z,7.33
2019-02-19T03:44:11.594Z,6.90
2019-02-19T03:46:40.571Z,7.57
2019-02-19T03:49:09.683Z,7.67
2019-02-19T03:51:38.716Z,7.27
2019-02-19T03:54:07.824Z,8.37
2019-02-19T03:56:36.919Z,7.53
2019-02-19T03:59:05.905Z,8.00
2019-02-19T04:01:35.028Z,8.00
2019-02-19T04:04:03.998Z,7.63
2019-02-19T04:06:32.968Z,8.43
2019-02-19T04:09:01.937Z,7.40
2019-02-19T04:11:30.899Z,8.43
2019-02-19T04:13:59.918Z,8.17
2019-02-19T04:16:28.875Z,7.93
2019-02-19T04:18:57.850Z,8.43
2019-02-19T04:21:26.849Z,8.47
2019-02-19T04:23:55.838Z,8.77
2019-02-19T04:26:24.798Z,8.03
2019-02-19T04:28:53.777Z,8.60
2019-02-19T04:31:22.821Z,8.30
2019-02-19T04:33:51.774Z,8.50
2019-02-19T04:36:20.750Z,8.53
2019-02-19T04:38:49.727Z,7.63
2019-02-19T04:41:18.764Z,8.23
2019-02-19T04:43:47.735Z,8.50
2019-02-19T04:46:16.779Z,8.20
2019-02-19T04:48:45.745Z,8.73
2019-02-19T04:51:14.729Z,8.57
2019-02-19T04:53:43.684Z,7.17
2019-02-19T04:56:12.658Z,7.47
2019-02-19T04:58:41.638Z,8.93
2019-02-19T05:01:10.598Z,8.03
2019-02-19T05:03:39.569Z,8.60
2019-02-19T05:06:08.542Z,7.90
2019-02-19T05:08:37.565Z,8.77
2019-02-19T05:11:06.809Z,8.17
2019-02-19T05:13:35.810Z,8.83
2019-02-19T05:16:04.769Z,8.50
2019-02-19T05:18:33.805Z,8.40
2019-02-19T05:21:02.773Z,7.80
2019-02-19T05:23:31.733Z,8.17
2019-02-19T05:26:00.705Z,7.80
2019-02-19T05:28:29.670Z,8.10
2019-02-19T05:30:58.645Z,8.60
2019-02-19T05:33:27.600Z,8.23
2019-02-19T05:35:56.640Z,8.03
2019-02-19T05:38:25.764Z,7.73
2019-02-19T05:40:54.906Z,8.57
2019-02-19T05:43:23.872Z,8.03
2019-02-19T05:45:52.835Z,8.57
2019-02-19T05:48:21.873Z,7.60
2019-02-19T05:50:50.943Z,8.20
2019-02-19T05:53:19.891Z,7.30
2019-02-19T05:55:48.949Z,9.60
2019-02-19T05:58:17.930Z,8.53
2019-02-19T06:00:47.019Z,8.43
2019-02-19T06:03:15.998Z,8.03
2019-02-19T06:05:44.962Z,8.00
2019-02-19T06:08:13.938Z,8.97
2019-02-19T06:10:44.171Z,8.37
2019-02-19T06:13:13.721Z,8.10
2019-02-19T06:15:42.893Z,8.77
2019-02-19T06:18:12.125Z,8.70
2019-02-19T06:20:41.106Z,8.50
2019-02-19T06:23:10.058Z,8.90
2019-02-19T06:25:39.039Z,8.83
2019-02-19T06:28:08.003Z,8.53
2019-02-19T06:30:37.006Z,8.13
2019-02-19T06:33:05.966Z,8.30
2019-02-19T06:35:34.944Z,8.40
2019-02-19T06:38:03.940Z,8.57
2019-02-19T06:40:32.899Z,8.37
2019-02-19T06:43:01.858Z,8.47
2019-02-19T06:45:30.833Z,8.93
2019-02-19T06:47:59.793Z,9.67
2019-02-19T06:50:28.881Z,9.63
2019-02-19T06:52:57.851Z,8.40
2019-02-19T06:55:26.846Z,8.80
2019-02-19T06:57:56.808Z,8.53
2019-02-19T07:00:25.766Z,8.80
2019-02-19T07:03:05.091Z,9.33
2019-02-19T07:05:34.138Z,8.67
2019-02-19T07:08:03.148Z,11.07
2019-02-19T07:10:32.126Z,10.20
2019-02-19T07:13:01.162Z,9.67
2019-02-19T07:15:30.134Z,9.10
2019-02-19T07:17:59.120Z,9.70
2019-02-19T07:20:28.081Z,8.87
2019-02-19T07:22:57.078Z,9.03
2019-02-19T07:25:26.030Z,9.90
2019-02-19T07:27:55.036Z,9.03
2019-02-19T07:30:23.993Z,8.93
2019-02-19T07:32:52.975Z,8.80
2019-02-19T07:35:21.944Z,9.30
2019-02-19T07:37:50.934Z,9.10
2019-02-19T07:40:20.029Z,9.30
2019-02-19T07:42:48.993Z,8.93
2019-02-19T07:45:17.998Z,8.53
2019-02-19T07:47:46.938Z,9.07
2019-02-19T07:50:16.009Z,8.90
2019-02-19T07:52:44.995Z,9.10
2019-02-19T07:55:14.090Z,8.77
2019-02-19T07:57:43.068Z,9.20
2019-02-19T08:00:13.280Z,9.07
2019-02-19T08:02:42.414Z,9.60
2019-02-19T08:05:11.477Z,9.47
2019-02-19T08:07:40.458Z,10.00
2019-02-19T08:10:11.435Z,9.53
2019-02-19T08:12:40.415Z,9.13
2019-02-19T08:15:11.112Z,9.97
2019-02-19T08:17:40.258Z,9.07
2019-02-19T08:20:15.759Z,9.30
2019-02-19T08:22:40.713Z,9.37
2019-02-19T08:25:09.835Z,9.50
2019-02-19T08:27:38.855Z,9.43
2019-02-19T08:30:11.085Z,10.63
2019-02-19T08:32:40.436Z,10.07
2019-02-19T08:35:09.405Z,9.47
2019-02-19T08:37:38.380Z,10.27
2019-02-19T08:40:09.483Z,10.73
2019-02-19T08:42:38.462Z,10.87
2019-02-19T08:45:09.473Z,11.20
2019-02-19T08:47:42.612Z,10.37
2019-02-19T08:50:09.194Z,10.83
2019-02-19T08:52:38.184Z,11.00
2019-02-19T08:55:07.690Z,11.43
2019-02-19T08:57:36.682Z,10.30
2019-02-19T09:00:08.772Z,10.90
2019-02-19T09:02:37.839Z,10.37
2019-02-19T09:05:07.798Z,10.37
2019-02-19T09:07:36.790Z,11.13
2019-02-19T09:10:08.867Z,11.13
2019-02-19T09:12:37.868Z,11.10
2019-02-19T09:15:11.934Z,11.57
2019-02-19T09:17:41.095Z,11.57
2019-02-19T09:20:11.207Z,10.90
2019-02-19T09:22:40.169Z,11.33
2019-02-19T09:25:09.139Z,11.53
2019-02-19T09:27:38.238Z,11.50
2019-02-19T09:30:10.533Z,11.03
2019-02-19T09:32:39.503Z,11.53
2019-02-19T09:35:09.439Z,11.33
2019-02-19T09:37:38.433Z,12.40
2019-02-19T09:40:09.423Z,10.83
2019-02-19T09:42:38.489Z,10.80
2019-02-19T09:45:09.705Z,11.50
2019-02-19T09:47:38.694Z,12.23
2019-02-19T09:50:09.702Z,12.57
2019-02-19T09:52:38.682Z,12.33
2019-02-19T09:55:08.356Z,12.13
2019-02-19T09:57:37.334Z,12.63
2019-02-19T10:00:13.702Z,12.87
2019-02-19T10:02:43.956Z,12.30
2019-02-19T10:05:13.206Z,12.47
2019-02-19T10:07:42.191Z,12.67
2019-02-19T10:10:14.400Z,12.73
2019-02-19T10:12:43.496Z,13.10
2019-02-19T10:15:13.397Z,12.30
2019-02-19T10:17:42.495Z,11.47
2019-02-19T10:20:13.408Z,13.50
2019-02-19T10:22:42.217Z,11.80
2019-02-19T10:25:14.657Z,13.80
2019-02-19T10:27:43.624Z,13.07
2019-02-19T10:30:19.645Z,12.07
2019-02-19T10:32:48.694Z,13.03
2019-02-19T10:35:17.674Z,12.37
2019-02-19T10:37:46.642Z,12.67
2019-02-19T10:40:17.331Z,12.37
2019-02-19T10:42:46.448Z,12.70
2019-02-19T10:45:18.327Z,13.00
2019-02-19T10:47:47.308Z,13.23
2019-02-19T10:50:16.276Z,12.90
2019-02-19T10:52:45.784Z,13.03
2019-02-19T10:55:14.854Z,13.03
2019-02-19T10:57:43.829Z,12.20
2019-02-19T11:00:20.299Z,11.77
2019-02-19T11:02:49.272Z,12.57
2019-02-19T11:05:18.334Z,12.20
2019-02-19T11:07:47.287Z,11.43
2019-02-19T11:10:16.292Z,11.87
2019-02-19T11:12:45.272Z,12.27
2019-02-19T11:15:15.209Z,12.03
2019-02-19T11:17:44.337Z,11.90
2019-02-19T11:20:18.751Z,11.97
2019-02-19T11:22:47.782Z,11.33
2019-02-19T11:25:16.770Z,11.80
2019-02-19T11:27:45.815Z,12.63
2019-02-19T11:30:16.763Z,11.53
2019-02-19T11:32:45.754Z,12.27
2019-02-19T11:35:14.851Z,12.30
2019-02-19T11:37:43.845Z,11.80
2019-02-19T11:40:14.169Z,12.00
2019-02-19T11:42:43.244Z,11.70
2019-02-19T11:45:15.310Z,12.77
2019-02-19T11:47:44.422Z,12.03
2019-02-19T11:50:14.156Z,11.37
2019-02-19T11:52:43.126Z,11.77
2019-02-19T11:55:14.823Z,12.13
2019-02-19T11:57:43.879Z,11.27
2019-02-19T12:00:24.399Z,12.20
2019-02-19T12:02:53.370Z,11.43
2019-02-19T12:05:22.374Z,12.43
2019-02-19T12:07:51.359Z,11.63
2019-02-19T12:10:20.353Z,11.30
2019-02-19T12:12:49.323Z,11.57
2019-02-19T12:15:19.286Z,11.83
2019-02-19T12:17:48.507Z,11.83
2019-02-19T12:20:17.509Z,11.13
2019-02-19T12:22:46.568Z,11.23
2019-02-19T12:25:15.598Z,10.97
2019-02-19T12:27:44.814Z,11.40
2019-02-19T12:30:19.030Z,10.17
2019-02-19T12:32:48.056Z,9.30
2019-02-19T12:35:17.213Z,8.93
2019-02-19T12:37:46.176Z,9.20
2019-02-19T12:40:15.280Z,8.77
2019-02-19T12:42:44.293Z,8.20
2019-02-19T12:45:17.479Z,8.23
2019-02-19T12:47:46.546Z,8.47
2019-02-19T12:50:19.178Z,7.63
2019-02-19T12:52:48.316Z,8.00
2019-02-19T12:55:17.297Z,7.47
2019-02-19T12:57:46.332Z,6.80
2019-02-19T13:00:19.419Z,7.20
2019-02-19T13:02:48.385Z,6.73
2019-02-19T13:05:17.656Z,6.83
2019-02-19T13:07:47.154Z,5.73
2019-02-19T13:10:16.407Z,4.87
2019-02-19T13:12:45.428Z,4.90
2019-02-19T13:15:17.510Z,5.00
2019-02-19T13:17:46.559Z,5.10
2019-02-19T13:20:15.630Z,4.83
2019-02-19T13:22:44.703Z,3.63
2019-02-19T13:25:13.767Z,3.40
2019-02-19T13:27:42.810Z,3.10
2019-02-19T13:30:22.066Z,2.77
2019-02-19T13:32:51.450Z,2.50
2019-02-19T13:35:21.090Z,2.90
2019-02-19T13:37:50.154Z,2.57
2019-02-19T13:40:20.076Z,3.37
2019-02-19T13:42:49.179Z,3.47
2019-02-19T13:45:18.225Z,3.17
2019-02-19T13:47:47.193Z,2.73
2019-02-19T13:50:21.448Z,2.67
2019-02-19T13:52:52.064Z,2.30
2019-02-19T13:55:22.754Z,2.70
2019-02-19T13:57:51.723Z,2.80
2019-02-19T14:00:25.370Z,2.73
2019-02-19T14:02:54.425Z,3.20
2019-02-19T14:05:23.485Z,2.77
2019-02-19T14:07:52.615Z,2.40
2019-02-19T14:10:21.597Z,2.60
2019-02-19T14:12:50.601Z,2.70
2019-02-19T14:15:26.967Z,2.70
2019-02-19T14:17:56.210Z,2.40
2019-02-19T14:20:43.308Z,2.27
2019-02-19T14:23:30.447Z,2.60
2019-02-19T14:26:01.077Z,2.20
2019-02-19T14:28:48.647Z,2.80
2019-02-19T14:31:34.735Z,2.40
2019-02-19T14:34:05.354Z,2.87
2019-02-19T14:36:47.969Z,2.90
2019-02-19T14:39:24.649Z,2.10
2019-02-19T14:41:55.333Z,2.53
2019-02-19T14:44:28.664Z,2.63
2019-02-19T14:47:01.984Z,2.50
2019-02-19T14:49:37.472Z,2.67
2019-02-19T14:52:07.994Z,2.30
2019-02-19T14:54:38.659Z,3.00
2019-02-19T14:57:09.271Z,2.27
2019-02-19T14:59:40.011Z,2.67
2019-02-19T15:02:10.606Z,2.73
2019-02-19T15:04:46.712Z,2.50
2019-02-19T15:07:20.027Z,2.10
2019-02-19T15:09:50.763Z,2.80
2019-02-19T15:12:21.348Z,2.70
2019-02-19T15:14:54.641Z,2.63
2019-02-19T15:17:31.257Z,2.67
2019-02-19T15:20:01.859Z,3.27
2019-02-19T15:22:41.545Z,2.40
2019-02-19T15:25:12.237Z,2.33
2019-02-19T15:27:59.078Z,2.87
2019-02-19T15:30:32.227Z,2.70
2019-02-19T15:33:08.619Z,2.80
2019-02-19T15:35:39.238Z,2.77
2019-02-19T15:38:26.087Z,2.87
2019-02-19T15:40:56.690Z,2.97
2019-02-19T15:43:33.138Z,2.73
2019-02-19T15:46:12.370Z,2.63
2019-02-19T15:48:45.744Z,2.60
2019-02-19T15:51:28.779Z,2.80
2019-02-19T15:53:59.419Z,2.50
2019-02-19T15:56:32.786Z,3.03
2019-02-19T15:59:20.030Z,3.03
2019-02-19T16:01:53.086Z,2.60
2019-02-19T16:04:23.702Z,2.97
2019-02-19T16:06:54.370Z,3.20
2019-02-19T16:09:40.043Z,2.90
2019-02-19T16:12:10.663Z,2.80
2019-02-19T16:14:57.236Z,2.87
2019-02-19T16:17:30.649Z,3.07
2019-02-19T16:20:10.281Z,3.00
2019-02-19T16:22:41.009Z,2.77
2019-02-19T16:25:20.499Z,3.33
2019-02-19T16:28:01.362Z,3.00
2019-02-19T16:30:31.987Z,2.60
2019-02-19T16:33:05.313Z,2.57
2019-02-19T16:35:36.031Z,2.77
2019-02-19T16:38:22.826Z,3.33
2019-02-19T16:40:53.551Z,2.93
2019-02-19T16:43:40.574Z,3.03
2019-02-19T16:46:17.015Z,3.30
2019-02-19T16:48:47.699Z,2.73
2019-02-19T16:51:18.397Z,2.83
2019-02-19T16:54:01.009Z,3.00
2019-02-19T16:56:40.436Z,3.27
2019-02-19T16:59:21.489Z,3.00
2019-02-19T17:02:08.536Z,3.37
2019-02-19T17:04:47.892Z,3.50
2019-02-19T17:07:34.818Z,3.53
2019-02-19T17:10:06.489Z,3.10
2019-02-19T17:12:53.649Z,3.40
2019-02-19T17:15:40.507Z,3.20
2019-02-19T17:18:11.207Z,3.10
2019-02-19T17:20:41.845Z,3.60
2019-02-19T17:23:27.804Z,3.87
2019-02-19T17:25:58.418Z,3.33
2019-02-19T17:28:31.629Z,3.47
2019-02-19T17:31:11.235Z,4.37
2019-02-19T17:33:41.869Z,4.23
2019-02-19T17:36:15.219Z,3.77
2019-02-19T17:38:48.812Z,4.37
2019-02-19T17:41:28.194Z,4.20
2019-02-19T17:44:01.560Z,4.40
2019-02-19T17:46:48.262Z,3.93
2019-02-19T17:49:37.328Z,4.30
2019-02-19T17:52:07.930Z,4.10
2019-02-19T17:54:54.840Z,4.30
2019-02-19T17:57:31.529Z,5.13
2019-02-19T18:00:02.162Z,4.20
2019-02-19T18:02:38.725Z,4.70
2019-02-19T18:05:25.493Z,3.63
2019-02-19T18:07:58.627Z,4.07
2019-02-19T18:10:29.247Z,4.20
2019-02-19T18:13:14.979Z,4.40
2019-02-19T18:16:00.563Z,4.63
2019-02-19T18:18:49.472Z,4.17
2019-02-19T18:21:18.855Z,4.30
2019-02-19T18:23:47.912Z,4.33
2019-02-19T18:26:17.003Z,4.27
2019-02-19T18:28:46.019Z,4.10
2019-02-19T18:31:15.005Z,4.47
2019-02-19T18:33:43.994Z,4.47
2019-02-19T18:36:13.702Z,4.67
2019-02-19T18:38:42.863Z,4.37
2019-02-19T18:41:12.079Z,4.80
2019-02-19T18:43:41.094Z,4.50
2019-02-19T18:46:10.067Z,4.30
2019-02-19T18:48:39.129Z,4.93
2019-02-19T18:51:08.206Z,4.57
2019-02-19T18:53:37.188Z,3.60
2019-02-19T18:56:06.166Z,4.63
2019-02-19T18:58:35.227Z,3.80
2019-02-19T19:01:04.255Z,4.57
2019-02-19T19:03:33.307Z,4.17
2019-02-19T19:06:02.354Z,4.63
2019-02-19T19:08:31.403Z,4.40
2019-02-19T19:11:00.384Z,4.00
2019-02-19T19:13:29.518Z,3.97
2019-02-19T19:15:58.577Z,4.03
2019-02-19T19:18:27.551Z,4.07
2019-02-19T19:20:56.547Z,4.23
2019-02-19T19:23:25.535Z,3.97
2019-02-19T19:25:54.519Z,4.33
2019-02-19T19:28:23.548Z,4.20
2019-02-19T19:30:52.543Z,4.27
2019-02-19T19:33:21.533Z,4.67
2019-02-19T19:35:50.720Z,4.37
2019-02-19T19:38:19.827Z,3.80
2019-02-19T19:40:48.885Z,4.27
2019-02-19T19:43:17.939Z,4.10
2019-02-19T19:45:46.915Z,5.03
2019-02-19T19:48:15.929Z,4.97
2019-02-19T19:50:45.019Z,4.60
2019-02-19T19:53:14.204Z,5.00
2019-02-19T19:55:43.202Z,4.50
2019-02-19T19:58:12.248Z,5.03
2019-02-19T20:00:41.287Z,5.10
2019-02-19T20:03:10.374Z,4.60
2019-02-19T20:05:39.340Z,4.93
2019-02-19T20:08:08.426Z,5.43
2019-02-19T20:10:37.434Z,4.83
2019-02-19T20:13:06.387Z,4.87
2019-02-19T20:15:35.451Z,5.47
2019-02-19T20:18:04.608Z,5.73
2019-02-19T20:20:33.600Z,4.60
2019-02-19T20:23:02.721Z,5.10
2019-02-19T20:25:31.727Z,5.67
2019-02-19T20:28:00.803Z,5.57
2019-02-19T20:30:29.798Z,5.77
2019-02-19T20:32:58.911Z,5.03
2019-02-19T20:35:27.987Z,5.07
2019-02-19T20:37:57.057Z,5.47
2019-02-19T20:40:26.140Z,4.97
2019-02-19T20:42:55.306Z,4.77
2019-02-19T20:45:24.375Z,5.00
2019-02-19T20:47:53.356Z,4.47
2019-02-19T20:50:22.372Z,5.03
2019-02-19T20:52:51.334Z,5.33
2019-02-19T20:55:20.322Z,4.83
2019-02-19T20:57:49.324Z,4.90
2019-02-19T21:00:18.546Z,5.17
2019-02-19T21:02:47.582Z,5.20
2019-02-19T21:05:16.749Z,4.90
2019-02-19T21:07:45.813Z,5.00
2019-02-19T21:10:17.070Z,5.73
2019-02-19T21:12:46.061Z,6.00
2019-02-19T21:15:15.250Z,5.30
2019-02-19T21:17:44.227Z,5.70
2019-02-19T21:20:15.106Z,5.23
2019-02-19T21:22:44.079Z,5.53
2019-02-19T21:25:13.126Z,5.80
2019-02-19T21:27:42.109Z,6.17
2019-02-19T21:30:13.394Z,5.80
2019-02-19T21:32:42.369Z,6.37
2019-02-19T21:35:11.416Z,6.40
2019-02-19T21:37:40.413Z,6.63
2019-02-19T21:40:13.850Z,6.03
2019-02-19T21:42:42.860Z,6.63
2019-02-19T21:45:13.479Z,6.27
2019-02-19T21:47:42.561Z,6.03
2019-02-19T21:50:15.859Z,6.13
2019-02-19T21:52:45.194Z,5.97
2019-02-19T21:55:14.410Z,5.87
2019-02-19T21:57:43.453Z,6.83
2019-02-19T22:00:15.788Z,6.03
2019-02-19T22:02:44.852Z,6.57
2019-02-19T22:05:14.027Z,6.93
2019-02-19T22:07:43.167Z,6.67
2019-02-19T22:10:13.758Z,7.10
2019-02-19T22:12:42.815Z,7.07
2019-02-19T22:15:15.643Z,7.23
2019-02-19T22:17:44.642Z,7.33
2019-02-19T22:20:36.195Z,7.43
2019-02-19T22:23:05.698Z,6.90
2019-02-19T22:25:34.666Z,7.23
2019-02-19T22:28:03.814Z,6.83
2019-02-19T22:30:32.770Z,6.90
2019-02-19T22:33:01.852Z,7.17
2019-02-19T22:35:30.821Z,9.43
2019-02-19T22:37:59.869Z,8.77
2019-02-19T22:40:28.921Z,8.00
2019-02-19T22:42:57.967Z,10.20
2019-02-19T22:45:26.998Z,9.70
2019-02-19T22:47:55.986Z,8.93
2019-02-19T22:50:24.955Z,7.90
2019-02-19T22:52:54.019Z,7.23
2019-02-19T22:55:33.095Z,7.67
2019-02-19T22:58:02.160Z,6.30
2019-02-19T23:00:47.805Z,6.90
2019-02-19T23:03:18.446Z,5.97
2019-02-19T23:05:47.473Z,5.80
2019-02-19T23:08:16.459Z,6.50
2019-02-19T23:10:45.430Z,6.60
2019-02-19T23:13:15.200Z,5.67
2019-02-19T23:15:44.699Z,5.97
2019-02-19T23:18:13.699Z,6.60
2019-02-19T23:20:42.663Z,5.90
2019-02-19T23:23:11.625Z,5.70
2019-02-19T23:25:40.598Z,5.90
2019-02-19T23:28:09.559Z,5.57
2019-02-19T23:30:57.897Z,6.23
2019-02-19T23:33:26.872Z,6.70
2019-02-19T23:36:15.691Z,6.87
2019-02-19T23:38:44.667Z,6.40
2019-02-19T23:41:13.641Z,8.03
2019-02-19T23:43:42.627Z,6.37
2019-02-19T23:46:11.666Z,6.67
2019-02-19T23:48:40.695Z,6.63
2019-02-19T23:51:09.663Z,6.77
2019-02-19T23:53:38.638Z,6.50
2019-02-19T23:56:07.606Z,6.50
2019-02-19T23:58:36.576Z,6.33
